Time;durP1;ratioP1;P1;durP2;ratioP2;P2;SDS_P1;SDS_P2;PMS_P1;PMS_P2;Temp;Humidity;BMP_temperature;BMP_pressure;BME280_temperature;BME280_humidity;BME280_pressure;Samples;Min_cycle;Max_cycle;Signal;HPM_P1;HPM_P2
2023/06/29 00:00:23;;;;;;;30.45;15.55;;;;;;;;;;5030085;27;100413;-74
2023/06/29 00:02:50;;;;;;;27.45;13.90;;;;;;;;;;5033015;28;98507;-74
2023/06/29 00:05:18;;;;;;;30.40;15.10;;;;;;;;;;5029078;28;99686;-74
2023/06/29 00:07:44;;;;;;;21.77;14.68;;;;;;;;;;5028766;28;99365;-74
2023/06/29 00:10:11;;;;;;;22.58;14.40;;;;;;;;;;5029189;28;99900;-74
2023/06/29 00:12:37;;;;;;;24.30;15.20;;;;;;;;;;5028727;28;99567;-74
2023/06/29 00:15:04;;;;;;;23.27;15.20;;;;;;;;;;5029696;28;98716;-74
2023/06/29 00:17:30;;;;;;;24.63;15.32;;;;;;;;;;5029030;28;99444;-74
2023/06/29 00:20:00;;;;;;;25.25;15.48;;;;;;;;;;5028853;28;99612;-74
2023/06/29 00:22:27;;;;;;;24.83;14.95;;;;;;;;;;5032710;28;98511;-74
2023/06/29 00:24:57;;;;;;;22.00;14.50;;;;;;;;;;5028935;27;99143;-74
2023/06/29 00:27:24;;;;;;;25.38;16.05;;;;;;;;;;5028668;28;98542;-74
2023/06/29 00:29:50;;;;;;;27.30;15.40;;;;;;;;;;5029054;28;99675;-74
2023/06/29 00:32:17;;;;;;;25.77;15.25;;;;;;;;;;5028443;28;100649;-74
2023/06/29 00:34:44;;;;;;;24.83;15.32;;;;;;;;;;5029167;28;98551;-74
2023/06/29 00:37:10;;;;;;;22.30;14.85;;;;;;;;;;5028773;28;100161;-74
2023/06/29 00:39:38;;;;;;;23.15;14.82;;;;;;;;;;5027343;28;99506;-74
2023/06/29 00:42:05;;;;;;;24.60;15.00;;;;;;;;;;5028907;28;98698;-74
2023/06/29 00:44:31;;;;;;;25.67;15.52;;;;;;;;;;5031801;28;99236;-74
2023/06/29 00:46:58;;;;;;;23.25;15.25;;;;;;;;;;5029585;27;98557;-74
2023/06/29 00:49:24;;;;;;;25.23;15.25;;;;;;;;;;5015266;28;99408;-75
2023/06/29 00:51:54;;;;;;;25.75;15.77;;;;;;;;;;5032205;28;100019;-74
2023/06/29 00:54:21;;;;;;;26.07;15.43;;;;;;;;;;5032031;28;98667;-74
2023/06/29 00:56:48;;;;;;;27.30;16.08;;;;;;;;;;5032600;28;102489;-74
2023/06/29 00:59:15;;;;;;;23.60;15.95;;;;;;;;;;5031859;27;99914;-74
2023/06/29 01:01:43;;;;;;;29.30;16.67;;;;;;;;;;5032673;28;98525;-74
2023/06/29 01:04:09;;;;;;;23.08;16.42;;;;;;;;;;5014333;28;99640;-74
2023/06/29 01:06:44;;;;;;;28.48;16.45;;;;;;;;;;5035682;28;102906;-74
2023/06/29 01:09:11;;;;;;;29.42;16.55;;;;;;;;;;5014054;28;99330;-74
2023/06/29 01:11:38;;;;;;;26.38;15.70;;;;;;;;;;5031837;28;99547;-74
2023/06/29 01:14:05;;;;;;;24.73;15.93;;;;;;;;;;5032501;28;97786;-74
2023/06/29 01:16:33;;;;;;;25.85;16.67;;;;;;;;;;5032373;28;100171;-74
2023/06/29 01:19:01;;;;;;;29.77;16.60;;;;;;;;;;5031686;28;99689;-74
2023/06/29 01:21:29;;;;;;;24.60;16.67;;;;;;;;;;5031394;27;99275;-73
2023/06/29 01:23:57;;;;;;;24.25;15.55;;;;;;;;;;5031838;28;100216;-74
2023/06/29 01:26:24;;;;;;;26.27;16.90;;;;;;;;;;5031521;28;99743;-74
2023/06/29 01:28:51;;;;;;;24.50;16.13;;;;;;;;;;5034449;27;98513;-74
2023/06/29 01:31:17;;;;;;;26.85;16.00;;;;;;;;;;5031270;28;99614;-74
2023/06/29 01:33:44;;;;;;;23.00;15.95;;;;;;;;;;5031470;27;98679;-74
2023/06/29 01:36:33;;;;;;;28.60;16.75;;;;;;;;;;5031541;27;99792;-74
2023/06/29 01:39:04;;;;;;;26.98;16.10;;;;;;;;;;5032236;28;100298;-74
2023/06/29 01:41:34;;;;;;;28.83;16.77;;;;;;;;;;5031804;28;98588;-74
2023/06/29 01:44:01;;;;;;;;;;;;;;;;;;5032050;28;99209;-74
2023/06/29 01:46:27;;;;;;;25.45;16.55;;;;;;;;;;5032278;28;130761;-74
2023/06/29 01:48:54;;;;;;;26.25;17.20;;;;;;;;;;5031366;28;98535;-74
2023/06/29 01:51:20;;;;;;;24.83;16.02;;;;;;;;;;5016597;28;99750;-74
2023/06/29 01:53:48;;;;;;;26.42;16.98;;;;;;;;;;5031416;28;99029;-74
2023/06/29 01:56:14;;;;;;;30.52;16.55;;;;;;;;;;5031497;28;99456;-74
2023/06/29 01:58:41;;;;;;;28.88;17.63;;;;;;;;;;5030623;27;99694;-74
2023/06/29 02:01:07;;;;;;;27.83;16.50;;;;;;;;;;5031354;28;98530;-74
2023/06/29 02:03:34;;;;;;;27.45;16.38;;;;;;;;;;5031812;28;99278;-74
2023/06/29 02:06:00;;;;;;;30.05;16.95;;;;;;;;;;5031472;28;100517;-74
2023/06/29 02:08:26;;;;;;;31.42;17.75;;;;;;;;;;5031190;28;98666;-74
2023/06/29 02:10:53;;;;;;;26.00;17.15;;;;;;;;;;5030747;28;99265;-74
2023/06/29 02:13:19;;;;;;;31.20;17.55;;;;;;;;;;5033927;27;99608;-74
2023/06/29 02:15:45;;;;;;;31.55;17.63;;;;;;;;;;5031032;28;99225;-74
2023/06/29 02:18:12;;;;;;;27.73;17.23;;;;;;;;;;5030607;28;100230;-74
2023/06/29 02:20:38;;;;;;;29.80;18.77;;;;;;;;;;5031017;28;98607;-74
2023/06/29 02:23:05;;;;;;;30.33;18.08;;;;;;;;;;5030915;28;99319;-74
2023/06/29 02:25:31;;;;;;;27.75;17.90;;;;;;;;;;5030853;28;100882;-74
2023/06/29 02:27:58;;;;;;;32.00;18.50;;;;;;;;;;5031063;27;98007;-74
2023/06/29 02:30:24;;;;;;;28.27;17.73;;;;;;;;;;5031064;28;98997;-74
2023/06/29 02:32:50;;;;;;;24.73;17.27;;;;;;;;;;5033636;28;99542;-74
2023/06/29 02:35:17;;;;;;;31.90;19.00;;;;;;;;;;5030764;28;101650;-74
2023/06/29 02:37:43;;;;;;;34.55;18.92;;;;;;;;;;5030477;28;99714;-74
2023/06/29 02:40:10;;;;;;;36.00;19.55;;;;;;;;;;5030858;28;98518;-74
2023/06/29 02:42:36;;;;;;;31.23;19.05;;;;;;;;;;5030418;28;99427;-74
2023/06/29 02:45:03;;;;;;;31.15;18.85;;;;;;;;;;5030285;28;99687;-74
2023/06/29 02:47:29;;;;;;;29.67;18.83;;;;;;;;;;5012825;28;98805;-74
2023/06/29 02:49:56;;;;;;;38.92;20.27;;;;;;;;;;5030266;28;99177;-74
2023/06/29 02:52:22;;;;;;;30.05;18.58;;;;;;;;;;5030875;28;99223;-74
2023/06/29 02:54:48;;;;;;;33.92;19.58;;;;;;;;;;5034246;28;98459;-74
2023/06/29 02:57:15;;;;;;;34.35;19.05;;;;;;;;;;5011957;28;100002;-74
2023/06/29 02:59:41;;;;;;;35.55;19.30;;;;;;;;;;5030580;27;99221;-74
2023/06/29 03:02:08;;;;;;;33.45;19.55;;;;;;;;;;5030543;28;100227;-74
2023/06/29 03:04:34;;;;;;;30.77;18.80;;;;;;;;;;5029740;28;100021;-74
2023/06/29 03:07:00;;;;;;;33.60;19.85;;;;;;;;;;5030375;28;98547;-74
2023/06/29 03:09:27;;;;;;;31.48;18.70;;;;;;;;;;5029181;28;99270;-74
2023/06/29 03:11:54;;;;;;;35.05;19.70;;;;;;;;;;5029867;28;99573;-74
2023/06/29 03:14:21;;;;;;;44.85;18.63;;;;;;;;;;5030054;28;98912;-74
2023/06/29 03:16:48;;;;;;;28.45;18.63;;;;;;;;;;5033518;28;99622;-74
2023/06/29 03:19:14;;;;;;;32.55;19.45;;;;;;;;;;5012512;28;98858;-74
2023/06/29 03:21:41;;;;;;;34.83;19.73;;;;;;;;;;5030412;27;99437;-74
2023/06/29 03:24:07;;;;;;;33.28;18.63;;;;;;;;;;5029580;28;101360;-73
2023/06/29 03:26:33;;;;;;;35.03;19.73;;;;;;;;;;5030626;28;98543;-74
2023/06/29 03:29:00;;;;;;;35.25;20.08;;;;;;;;;;5028870;27;99399;-74
2023/06/29 03:31:26;;;;;;;39.80;19.23;;;;;;;;;;5029452;28;99443;-73
2023/06/29 03:33:52;;;;;;;41.00;20.30;;;;;;;;;;5029799;28;98428;-73
2023/06/29 03:36:19;;;;;;;35.05;20.17;;;;;;;;;;5029660;28;99296;-73
2023/06/29 03:38:45;;;;;;;32.85;19.83;;;;;;;;;;5032611;27;100285;-73
2023/06/29 03:41:12;;;;;;;33.53;20.50;;;;;;;;;;5030351;27;99423;-73
2023/06/29 03:43:38;;;;;;;30.13;19.80;;;;;;;;;;5029445;28;99639;-73
2023/06/29 03:46:04;;;;;;;34.85;19.67;;;;;;;;;;5029002;27;98537;-73
2023/06/29 03:48:31;;;;;;;33.88;20.02;;;;;;;;;;5028528;28;99289;-73
2023/06/29 03:50:57;;;;;;;35.90;20.77;;;;;;;;;;5029331;28;99533;-73
2023/06/29 03:53:24;;;;;;;41.80;20.50;;;;;;;;;;5029213;28;98523;-73
2023/06/29 03:55:50;;;;;;;41.13;21.67;;;;;;;;;;5029121;28;99286;-73
2023/06/29 03:58:16;;;;;;;33.78;20.73;;;;;;;;;;5028912;28;99543;-73
2023/06/29 04:00:44;;;;;;;35.20;19.67;;;;;;;;;;5032586;28;98889;-73
2023/06/29 04:03:10;;;;;;;38.58;22.15;;;;;;;;;;5011304;28;99702;-73
2023/06/29 04:05:37;;;;;;;37.08;21.75;;;;;;;;;;5012245;28;97818;-73
2023/06/29 04:08:04;;;;;;;34.70;21.92;;;;;;;;;;5029202;28;99127;-73
2023/06/29 04:10:32;;;;;;;38.38;21.77;;;;;;;;;;5028595;28;99643;-73
2023/06/29 04:12:58;;;;;;;39.33;22.13;;;;;;;;;;5029021;28;99266;-73
2023/06/29 04:15:25;;;;;;;34.75;20.20;;;;;;;;;;5028801;28;100331;-73
2023/06/29 04:17:52;;;;;;;34.42;21.30;;;;;;;;;;5028453;28;99558;-73
2023/06/29 04:20:19;;;;;;;35.83;21.42;;;;;;;;;;5028714;28;98510;-73
2023/06/29 04:22:45;;;;;;;35.13;20.83;;;;;;;;;;5031829;27;99218;-73
2023/06/29 04:25:11;;;;;;;38.55;21.63;;;;;;;;;;5028615;28;98512;-73
2023/06/29 04:27:38;;;;;;;32.60;20.98;;;;;;;;;;5028635;28;99384;-73
2023/06/29 04:30:04;;;;;;;37.50;21.98;;;;;;;;;;5029009;28;99204;-74
2023/06/29 04:32:31;;;;;;;41.10;23.02;;;;;;;;;;5028902;27;98788;-73
2023/06/29 04:34:59;;;;;;;40.83;22.77;;;;;;;;;;5028418;28;99210;-73
2023/06/29 04:37:25;;;;;;;34.80;22.05;;;;;;;;;;5028147;28;100533;-73
2023/06/29 04:39:52;;;;;;;34.03;21.38;;;;;;;;;;5028433;28;98988;-73
2023/06/29 04:42:18;;;;;;;38.15;22.30;;;;;;;;;;5031857;27;99269;-73
2023/06/29 04:44:44;;;;;;;35.03;21.70;;;;;;;;;;5010863;28;98519;-73
2023/06/29 04:47:11;;;;;;;34.08;21.73;;;;;;;;;;5028889;28;100428;-73
2023/06/29 04:49:39;;;;;;;35.58;21.95;;;;;;;;;;5028198;28;99674;-73
2023/06/29 04:52:06;;;;;;;36.53;22.58;;;;;;;;;;5029066;28;98473;-73
2023/06/29 04:54:33;;;;;;;33.80;21.45;;;;;;;;;;5011314;28;99538;-73
2023/06/29 04:56:59;;;;;;;43.70;22.27;;;;;;;;;;4990359;28;99977;-73
2023/06/29 04:59:27;;;;;;;43.05;23.83;;;;;;;;;;5008576;28;98580;-73
2023/06/29 05:01:53;;;;;;;36.00;22.58;;;;;;;;;;5008047;28;99549;-73
2023/06/29 05:04:19;;;;;;;41.33;23.42;;;;;;;;;;5011319;28;99640;-73
2023/06/29 05:06:46;;;;;;;43.25;23.20;;;;;;;;;;5008583;28;100346;-73
2023/06/29 05:09:12;;;;;;;42.80;23.77;;;;;;;;;;5008450;28;100555;-73
2023/06/29 05:11:39;;;;;;;40.15;22.77;;;;;;;;;;5008645;28;98551;-73
2023/06/29 05:14:05;;;;;;;36.17;24.05;;;;;;;;;;5008510;28;99472;-73
2023/06/29 05:16:32;;;;;;;41.08;24.45;;;;;;;;;;5013469;28;102720;-73
2023/06/29 05:18:58;;;;;;;47.53;24.23;;;;;;;;;;5028751;28;98006;-73
2023/06/29 05:21:27;;;;;;;38.42;23.52;;;;;;;;;;5028481;28;98688;-73
2023/06/29 05:23:53;;;;;;;37.20;23.38;;;;;;;;;;5027727;28;99366;-73
2023/06/29 05:26:20;;;;;;;37.15;22.75;;;;;;;;;;5013068;28;99364;-73
2023/06/29 05:28:46;;;;;;;45.55;23.88;;;;;;;;;;5027476;28;99692;-73
2023/06/29 05:31:30;;;;;;;39.72;24.02;;;;;;;;;;5028111;28;98520;-73
2023/06/29 05:33:57;;;;;;;39.78;22.52;;;;;;;;;;5031065;27;100551;-74
2023/06/29 05:36:23;;;;;;;38.53;22.20;;;;;;;;;;5031289;28;99562;-73
2023/06/29 05:38:50;;;;;;;39.40;23.23;;;;;;;;;;5031636;28;98539;-74
2023/06/29 05:41:16;;;;;;;36.75;22.05;;;;;;;;;;5031557;28;99561;-74
2023/06/29 05:43:42;;;;;;;42.78;23.42;;;;;;;;;;5031964;27;99942;-73
2023/06/29 05:46:09;;;;;;;40.47;22.77;;;;;;;;;;5013428;28;98558;-73
2023/06/29 05:48:35;;;;;;;38.05;22.52;;;;;;;;;;5034409;28;99291;-73
2023/06/29 05:51:02;;;;;;;38.20;22.33;;;;;;;;;;5031091;28;99607;-74
2023/06/29 05:53:28;;;;;;;40.70;22.73;;;;;;;;;;5031345;28;100163;-74
2023/06/29 05:55:54;;;;;;;39.95;23.35;;;;;;;;;;5030715;28;99542;-73
2023/06/29 05:58:21;;;;;;;43.22;22.48;;;;;;;;;;5030906;28;98800;-74
2023/06/29 06:00:48;;;;;;;41.55;23.08;;;;;;;;;;5031115;28;99390;-74
2023/06/29 06:03:15;;;;;;;38.25;22.25;;;;;;;;;;5013073;28;99568;-74
2023/06/29 06:05:41;;;;;;;38.17;23.40;;;;;;;;;;5013330;28;98549;-74
2023/06/29 06:08:08;;;;;;;45.38;24.77;;;;;;;;;;5031597;28;100203;-73
2023/06/29 06:10:34;;;;;;;38.78;24.35;;;;;;;;;;5033879;27;99518;-73
2023/06/29 06:13:02;;;;;;;44.35;23.35;;;;;;;;;;5030657;28;99781;-74
2023/06/29 06:15:29;;;;;;;38.42;23.80;;;;;;;;;;5030459;28;101382;-74
2023/06/29 06:17:55;;;;;;;44.15;23.75;;;;;;;;;;5031038;27;98523;-74
2023/06/29 06:20:22;;;;;;;37.35;23.27;;;;;;;;;;5031161;28;99458;-74
2023/06/29 06:22:48;;;;;;;39.97;23.67;;;;;;;;;;5030497;27;99549;-74
2023/06/29 06:25:17;;;;;;;39.63;23.33;;;;;;;;;;5030817;28;98473;-74
2023/06/29 06:27:44;;;;;;;41.40;23.60;;;;;;;;;;5030045;28;99189;-74
2023/06/29 06:30:10;;;;;;;39.33;22.98;;;;;;;;;;5030330;28;99669;-74
2023/06/29 06:32:41;;;;;;;41.00;23.52;;;;;;;;;;5034313;28;98922;-74
2023/06/29 06:35:08;;;;;;;43.10;22.98;;;;;;;;;;5030269;28;99407;-74
2023/06/29 06:37:35;;;;;;;39.22;23.50;;;;;;;;;;5030622;27;98851;-74
2023/06/29 06:40:07;;;;;;;39.83;23.27;;;;;;;;;;5029364;28;99268;-74
2023/06/29 06:42:34;;;;;;;37.90;22.10;;;;;;;;;;5012414;28;99710;-74
2023/06/29 06:45:03;;;;;;;38.83;22.20;;;;;;;;;;5028807;27;99153;-74
2023/06/29 06:47:33;;;;;;;39.33;23.05;;;;;;;;;;5030384;27;99416;-74
2023/06/29 06:49:59;;;;;;;37.20;22.73;;;;;;;;;;5029867;28;99736;-74
2023/06/29 06:52:26;;;;;;;39.67;21.92;;;;;;;;;;5033581;28;98803;-74
2023/06/29 06:54:53;;;;;;;44.03;22.33;;;;;;;;;;5029894;28;99681;-74
2023/06/29 06:57:19;;;;;;;37.33;22.15;;;;;;;;;;5030668;28;97769;-72
2023/06/29 06:59:46;;;;;;;31.80;20.60;;;;;;;;;;5030284;27;98787;-72
2023/06/29 07:02:12;;;;;;;39.28;22.80;;;;;;;;;;5012124;28;99552;-73
2023/06/29 07:04:39;;;;;;;30.45;20.30;;;;;;;;;;5030143;28;99261;-73
2023/06/29 07:07:06;;;;;;;33.83;20.45;;;;;;;;;;5029541;28;100347;-73
2023/06/29 07:09:32;;;;;;;37.65;20.83;;;;;;;;;;5029538;28;99486;-73
2023/06/29 07:11:59;;;;;;;39.88;21.58;;;;;;;;;;5029867;28;98497;-73
2023/06/29 07:14:25;;;;;;;36.88;20.63;;;;;;;;;;5032927;28;99789;-73
2023/06/29 07:16:52;;;;;;;36.03;21.92;;;;;;;;;;5029432;28;98760;-73
2023/06/29 07:19:18;;;;;;;36.63;21.65;;;;;;;;;;5030605;28;98978;-75
2023/06/29 07:21:48;;;;;;;38.38;21.27;;;;;;;;;;5030529;27;98551;-73
2023/06/29 07:24:20;;;;;;;33.00;21.70;;;;;;;;;;5030513;28;98495;-73
2023/06/29 07:26:46;;;;;;;34.05;21.08;;;;;;;;;;5029868;28;99415;-73
2023/06/29 07:29:12;;;;;;;36.33;21.60;;;;;;;;;;5028634;27;100322;-73
2023/06/29 07:31:39;;;;;;;35.97;21.23;;;;;;;;;;5029835;28;98562;-73
2023/06/29 07:34:05;;;;;;;33.65;21.38;;;;;;;;;;5028601;28;99342;-75
2023/06/29 07:36:33;;;;;;;36.92;21.65;;;;;;;;;;5032631;27;100164;-75
2023/06/29 07:39:00;;;;;;;38.75;22.20;;;;;;;;;;5029607;28;99416;-73
2023/06/29 07:41:26;;;;;;;31.08;20.40;;;;;;;;;;5011462;28;99600;-73
2023/06/29 07:43:56;;;;;;;36.72;20.85;;;;;;;;;;5029743;27;98491;-73
2023/06/29 07:46:22;;;;;;;35.28;20.27;;;;;;;;;;5030013;28;99399;-73
2023/06/29 07:48:49;;;;;;;33.33;20.67;;;;;;;;;;5029034;28;99520;-73
2023/06/29 07:51:17;;;;;;;34.85;20.90;;;;;;;;;;5029359;27;98865;-74
2023/06/29 07:53:43;;;;;;;40.05;21.13;;;;;;;;;;5029072;28;99366;-75
2023/06/29 07:56:10;;;;;;;36.08;20.45;;;;;;;;;;5028857;27;100618;-75
2023/06/29 07:58:36;;;;;;;30.75;21.00;;;;;;;;;;5033223;27;98914;-73
2023/06/29 08:01:05;;;;;;;36.80;21.88;;;;;;;;;;5028992;28;99674;-73
2023/06/29 08:03:32;;;;;;;33.38;20.25;;;;;;;;;;5011129;28;98609;-74
2023/06/29 08:06:16;;;;;;;34.75;21.58;;;;;;;;;;5029350;28;99217;-74
2023/06/29 08:08:46;;;;;;;31.92;20.92;;;;;;;;;;5029280;28;99499;-74
2023/06/29 08:11:13;;;;;;;36.65;21.13;;;;;;;;;;5029582;27;97766;-74
2023/06/29 08:13:41;;;;;;;32.83;21.48;;;;;;;;;;5029173;27;98674;-74
2023/06/29 08:16:07;;;;;;;37.88;21.15;;;;;;;;;;5028859;28;99673;-74
2023/06/29 08:18:33;;;;;;;37.58;20.92;;;;;;;;;;5028936;28;99556;-74
2023/06/29 08:21:00;;;;;;;30.50;20.27;;;;;;;;;;5032006;28;99986;-74
2023/06/29 08:23:26;;;;;;;34.78;19.67;;;;;;;;;;5029479;28;98497;-74
2023/06/29 08:25:53;;;;;;;35.25;19.88;;;;;;;;;;5029115;28;99291;-74
2023/06/29 08:28:19;;;;;;;36.63;20.02;;;;;;;;;;5028126;28;101090;-74
2023/06/29 08:30:46;;;;;;;29.92;19.52;;;;;;;;;;5028904;28;98633;-74
2023/06/29 08:33:12;;;;;;;33.40;21.00;;;;;;;;;;5028948;27;99543;-74
2023/06/29 08:35:39;;;;;;;32.35;20.30;;;;;;;;;;5029699;28;98962;-74
2023/06/29 08:38:06;;;;;;;33.92;22.15;;;;;;;;;;5029082;28;98915;-72
2023/06/29 08:40:34;;;;;;;31.63;20.63;;;;;;;;;;5032008;28;99378;-72
2023/06/29 08:43:01;;;;;;;35.22;22.25;;;;;;;;;;5028064;28;99273;-72
2023/06/29 08:45:28;;;;;;;42.75;22.65;;;;;;;;;;5028796;28;100328;-73
2023/06/29 08:47:55;;;;;;;36.85;22.42;;;;;;;;;;5028395;27;99501;-73
2023/06/29 08:50:25;;;;;;;37.35;23.08;;;;;;;;;;5029056;28;98536;-73
2023/06/29 08:52:52;;;;;;;35.47;23.83;;;;;;;;;;5028308;28;99394;-73
2023/06/29 08:55:18;;;;;;;36.83;23.20;;;;;;;;;;5028609;27;99721;-73
2023/06/29 08:57:45;;;;;;;37.33;22.83;;;;;;;;;;5028429;28;98563;-73
2023/06/29 09:00:13;;;;;;;34.63;22.90;;;;;;;;;;5029151;28;99418;-73
2023/06/29 09:02:39;;;;;;;38.03;23.15;;;;;;;;;;5031910;28;100570;-72
2023/06/29 09:05:06;;;;;;;33.58;22.48;;;;;;;;;;5028919;28;100775;-73
2023/06/29 09:07:34;;;;;;;40.60;23.17;;;;;;;;;;5010105;28;100653;-73
2023/06/29 09:10:01;;;;;;;38.83;22.77;;;;;;;;;;5032179;28;98655;-73
2023/06/29 09:12:27;;;;;;;40.25;23.80;;;;;;;;;;5032083;27;99422;-72
2023/06/29 09:14:57;;;;;;;34.38;22.58;;;;;;;;;;5031670;27;99511;-73
2023/06/29 09:17:23;;;;;;;37.17;23.80;;;;;;;;;;5031875;28;98547;-73
2023/06/29 09:19:50;;;;;;;35.03;22.75;;;;;;;;;;5031978;27;99256;-73
2023/06/29 09:22:18;;;;;;;35.42;22.92;;;;;;;;;;5031502;28;99702;-73
2023/06/29 09:24:45;;;;;;;32.35;21.67;;;;;;;;;;5035431;27;97780;-73
2023/06/29 09:27:32;;;;;;;45.10;22.92;;;;;;;;;;5030571;28;99703;-73
2023/06/29 09:30:00;;;;;;;35.97;21.45;;;;;;;;;;5031864;28;98655;-73
2023/06/29 09:32:28;;;;;;;32.63;21.40;;;;;;;;;;5031285;28;100378;-73
2023/06/29 09:34:54;;;;;;;35.80;22.23;;;;;;;;;;5031089;28;100003;-73
2023/06/29 09:37:22;;;;;;;37.78;22.35;;;;;;;;;;5031517;28;98553;-73
2023/06/29 09:39:49;;;;;;;38.03;22.27;;;;;;;;;;5031620;28;99416;-73
2023/06/29 09:42:15;;;;;;;34.53;20.73;;;;;;;;;;5031241;28;99961;-73
2023/06/29 09:44:44;;;;;;;31.63;21.63;;;;;;;;;;5031002;28;98545;-72
2023/06/29 09:47:11;;;;;;;35.92;21.02;;;;;;;;;;5034619;27;99384;-73
2023/06/29 09:49:40;;;;;;;;;;;;;;;;;;5032454;27;97834;-73
2023/06/29 09:52:07;;;;;;;35.80;19.95;;;;;;;;;;5033301;28;128740;-73
2023/06/29 09:54:34;;;;;;;33.90;21.33;;;;;;;;;;5030496;27;99512;-73
2023/06/29 09:57:03;;;;;;;33.88;20.13;;;;;;;;;;5030670;28;99331;-74
2023/06/29 09:59:30;;;;;;;29.45;19.70;;;;;;;;;;5031122;28;100477;-73
2023/06/29 10:01:57;;;;;;;29.85;18.85;;;;;;;;;;5012843;28;100016;-73
2023/06/29 10:04:24;;;;;;;30.42;18.70;;;;;;;;;;5012961;28;98678;-73
2023/06/29 10:07:02;;;;;;;31.67;19.85;;;;;;;;;;5013386;28;99198;-73
2023/06/29 10:09:30;;;;;;;29.25;19.20;;;;;;;;;;5034043;28;99495;-73
2023/06/29 10:11:58;;;;;;;30.52;18.40;;;;;;;;;;5030870;28;99447;-73
2023/06/29 10:14:24;;;;;;;36.65;19.02;;;;;;;;;;5031358;27;98989;-73
2023/06/29 10:16:53;;;;;;;30.48;20.17;;;;;;;;;;5030479;28;98533;-73
2023/06/29 10:19:20;;;;;;;36.63;21.00;;;;;;;;;;5030531;28;99671;-73
2023/06/29 10:21:53;;;;;;;36.25;20.55;;;;;;;;;;5029884;28;100256;-73
2023/06/29 10:24:25;;;;;;;29.45;18.42;;;;;;;;;;5030791;28;98720;-74
2023/06/29 10:26:52;;;;;;;24.00;17.35;;;;;;;;;;5030775;28;99326;-74
2023/06/29 10:29:18;;;;;;;28.67;18.67;;;;;;;;;;5029929;27;99552;-74
2023/06/29 10:31:48;;;;;;;29.73;18.20;;;;;;;;;;5034163;27;98561;-73
2023/06/29 10:34:15;;;;;;;31.63;18.98;;;;;;;;;;5030975;28;100875;-73
2023/06/29 10:36:45;;;;;;;25.63;17.02;;;;;;;;;;5030514;28;98746;-73
2023/06/29 10:39:30;;;;;;;29.38;16.98;;;;;;;;;;5031201;28;99308;-73
2023/06/29 10:41:57;;;;;;;30.83;17.50;;;;;;;;;;5030297;28;100306;-73
2023/06/29 10:44:33;;;;;;;27.20;17.50;;;;;;;;;;5012692;28;98563;-73
2023/06/29 10:46:59;;;;;;;29.23;16.83;;;;;;;;;;5030120;28;99387;-73
2023/06/29 10:49:26;;;;;;;26.17;16.80;;;;;;;;;;5030516;28;99925;-73
2023/06/29 10:51:53;;;;;;;32.72;18.67;;;;;;;;;;5034196;28;98706;-73
2023/06/29 10:54:20;;;;;;;31.10;19.65;;;;;;;;;;5029668;27;99943;-74
2023/06/29 10:56:57;;;;;;;33.83;19.27;;;;;;;;;;5030208;28;98508;-73
2023/06/29 10:59:24;;;;;;;32.92;19.83;;;;;;;;;;5030610;27;100489;-73
2023/06/29 11:01:51;;;;;;;32.80;19.58;;;;;;;;;;5029932;28;99465;-74
2023/06/29 11:04:17;;;;;;;30.23;19.17;;;;;;;;;;5030864;28;97826;-73
2023/06/29 11:06:44;;;;;;;29.15;18.77;;;;;;;;;;5030000;28;98749;-74
2023/06/29 11:09:12;;;;;;;24.58;17.25;;;;;;;;;;5029832;27;99429;-74
2023/06/29 11:11:38;;;;;;;29.48;19.42;;;;;;;;;;5011684;28;99336;-74
2023/06/29 11:14:05;;;;;;;30.02;18.85;;;;;;;;;;5033151;27;100194;-74
2023/06/29 11:16:32;;;;;;;24.90;16.77;;;;;;;;;;5030270;28;99509;-74
2023/06/29 11:19:02;;;;;;;25.15;17.98;;;;;;;;;;5029871;28;99637;-74
2023/06/29 11:21:29;;;;;;;27.27;17.77;;;;;;;;;;5029538;27;99655;-74
2023/06/29 11:23:55;;;;;;;30.25;17.25;;;;;;;;;;5029679;27;98551;-74
2023/06/29 11:26:22;;;;;;;30.92;17.98;;;;;;;;;;5030001;27;99282;-74
2023/06/29 11:28:51;;;;;;;26.02;17.85;;;;;;;;;;5030147;27;100086;-74
2023/06/29 11:31:19;;;;;;;28.30;18.17;;;;;;;;;;5029409;27;98497;-74
2023/06/29 11:33:52;;;;;;;36.25;20.38;;;;;;;;;;5029469;27;99578;-74
2023/06/29 11:36:28;;;;;;;30.88;18.83;;;;;;;;;;5032278;27;100296;-74
2023/06/29 11:39:02;;;;;;;32.80;20.70;;;;;;;;;;5030110;28;99802;-74
2023/06/29 11:41:29;;;;;;;32.70;20.67;;;;;;;;;;5029279;28;99617;-75
2023/06/29 11:43:57;;;;;;;33.83;21.13;;;;;;;;;;5029649;28;98570;-74
2023/06/29 11:46:23;;;;;;;34.05;21.08;;;;;;;;;;5029926;28;98970;-74
2023/06/29 11:48:56;;;;;;;30.45;20.10;;;;;;;;;;5029039;28;99379;-74
2023/06/29 11:51:25;;;;;;;31.73;21.50;;;;;;;;;;5029771;27;98525;-74
2023/06/29 11:53:55;;;;;;;33.33;20.38;;;;;;;;;;5029798;28;99116;-74
2023/06/29 11:56:24;;;;;;;33.15;21.65;;;;;;;;;;5029024;28;99681;-74
2023/06/29 11:58:51;;;;;;;33.53;20.98;;;;;;;;;;5032359;28;98586;-74
2023/06/29 12:01:18;;;;;;;35.60;21.55;;;;;;;;;;5010801;28;100413;-74
2023/06/29 12:03:47;;;;;;;31.53;20.50;;;;;;;;;;5029234;28;98510;-74
2023/06/29 12:06:14;;;;;;;39.35;22.85;;;;;;;;;;5029424;27;99072;-74
2023/06/29 12:08:40;;;;;;;36.88;22.33;;;;;;;;;;5028986;28;99494;-74
2023/06/29 12:11:18;;;;;;;41.55;21.70;;;;;;;;;;5011842;28;99559;-74
2023/06/29 12:13:48;;;;;;;36.58;22.80;;;;;;;;;;5029114;28;99447;-74
2023/06/29 12:16:15;;;;;;;31.13;21.17;;;;;;;;;;5029093;28;100847;-72
2023/06/29 12:18:44;;;;;;;37.40;20.75;;;;;;;;;;5030284;28;97744;-73
2023/06/29 12:21:17;;;;;;;36.25;20.80;;;;;;;;;;5031878;28;98915;-73
2023/06/29 12:23:44;;;;;;;32.55;18.88;;;;;;;;;;5028572;27;98529;-73
2023/06/29 12:26:11;;;;;;;34.00;19.60;;;;;;;;;;5028103;28;99233;-72
2023/06/29 12:28:37;;;;;;;35.22;18.58;;;;;;;;;;5028223;28;99674;-72
2023/06/29 12:31:05;;;;;;;28.08;17.90;;;;;;;;;;5029092;27;98613;-73
2023/06/29 12:33:32;;;;;;;26.95;18.98;;;;;;;;;;5028938;27;99387;-73
2023/06/29 12:35:58;;;;;;;27.70;18.27;;;;;;;;;;5028592;27;99681;-73
2023/06/29 12:38:25;;;;;;;28.35;17.33;;;;;;;;;;5028651;27;98585;-73
2023/06/29 12:40:51;;;;;;;26.08;17.08;;;;;;;;;;5028728;28;99273;-72
2023/06/29 12:43:18;;;;;;;29.30;18.13;;;;;;;;;;5035401;27;98848;-75
2023/06/29 12:45:45;;;;;;;26.42;17.70;;;;;;;;;;5032211;28;98848;-73
2023/06/29 12:48:11;;;;;;;27.80;17.65;;;;;;;;;;5031864;27;99844;-73
2023/06/29 12:50:38;;;;;;;26.17;18.08;;;;;;;;;;5032057;28;99377;-74
2023/06/29 12:53:04;;;;;;;27.05;17.40;;;;;;;;;;5032250;28;100067;-73
2023/06/29 12:55:30;;;;;;;29.23;18.95;;;;;;;;;;5031638;28;99935;-74
2023/06/29 12:57:57;;;;;;;27.90;17.83;;;;;;;;;;5032097;28;98948;-73
2023/06/29 13:00:23;;;;;;;29.17;18.13;;;;;;;;;;5032043;28;99268;-73
2023/06/29 13:02:52;;;;;;;28.40;18.58;;;;;;;;;;5035147;27;99464;-73
2023/06/29 13:05:18;;;;;;;30.23;17.25;;;;;;;;;;5031988;28;99373;-73
2023/06/29 13:07:45;;;;;;;28.50;17.05;;;;;;;;;;5032619;27;99923;-73
2023/06/29 13:10:11;;;;;;;27.95;16.98;;;;;;;;;;5031802;28;98523;-73
2023/06/29 13:12:39;;;;;;;24.30;14.88;;;;;;;;;;5032374;27;100311;-73
2023/06/29 13:15:06;;;;;;;17.75;12.20;;;;;;;;;;5013058;28;99954;-73
2023/06/29 13:17:33;;;;;;;32.55;13.50;;;;;;;;;;5032077;28;98863;-73
2023/06/29 13:19:59;;;;;;;38.45;14.77;;;;;;;;;;5031627;27;99649;-74
2023/06/29 13:22:25;;;;;;;28.83;15.18;;;;;;;;;;5031990;27;100474;-74
2023/06/29 13:24:52;;;;;;;32.50;16.50;;;;;;;;;;5034986;28;98989;-74
2023/06/29 13:27:18;;;;;;;31.20;15.38;;;;;;;;;;5031555;28;99856;-74
2023/06/29 13:29:44;;;;;;;29.63;16.23;;;;;;;;;;5031533;28;98601;-74
2023/06/29 13:32:11;;;;;;;31.30;16.25;;;;;;;;;;5030899;28;99495;-73
2023/06/29 13:34:37;;;;;;;31.23;17.17;;;;;;;;;;5031568;28;101879;-74
2023/06/29 13:37:04;;;;;;;33.53;16.55;;;;;;;;;;5031625;28;98713;-74
2023/06/29 13:39:31;;;;;;;28.00;16.63;;;;;;;;;;5031178;28;99296;-73
2023/06/29 13:41:57;;;;;;;23.55;15.82;;;;;;;;;;5031366;28;99690;-73
2023/06/29 13:44:23;;;;;;;32.58;16.73;;;;;;;;;;5031249;28;98539;-73
2023/06/29 13:46:50;;;;;;;29.58;15.93;;;;;;;;;;5034769;28;100366;-73
2023/06/29 13:49:16;;;;;;;27.48;16.25;;;;;;;;;;5013364;27;98819;-73
2023/06/29 13:51:43;;;;;;;25.77;15.25;;;;;;;;;;5031689;28;99402;-74
2023/06/29 13:54:11;;;;;;;25.50;17.05;;;;;;;;;;5030590;27;99474;-73
2023/06/29 13:56:38;;;;;;;22.88;14.02;;;;;;;;;;5031756;28;97979;-73
2023/06/29 13:59:06;;;;;;;22.52;15.25;;;;;;;;;;5031440;27;98770;-73
2023/06/29 14:01:36;;;;;;;20.92;14.65;;;;;;;;;;5030965;27;99479;-73
2023/06/29 14:04:03;;;;;;;;;;;;;;;;;;5013633;28;99416;-73
2023/06/29 14:06:29;;;;;;;21.05;14.13;;;;;;;;;;5032934;28;130183;-73
2023/06/29 14:08:56;;;;;;;29.83;14.48;;;;;;;;;;5034134;28;99592;-73
2023/06/29 14:11:23;;;;;;;21.15;14.20;;;;;;;;;;5030826;28;98430;-73
2023/06/29 14:13:50;;;;;;;27.65;14.85;;;;;;;;;;5030459;27;99657;-73
2023/06/29 14:16:17;;;;;;;21.83;13.60;;;;;;;;;;5012554;28;98599;-73